createdAt,value
2022-09-13T00:00:46.407Z,14.20
2022-09-13T00:03:14.424Z,14.20
2022-09-13T00:05:42.317Z,14.10
2022-09-13T00:08:11.961Z,14.10
2022-09-13T00:10:41.113Z,14.10
2022-09-13T00:13:10.180Z,14.00
2022-09-13T00:15:38.681Z,13.90
2022-09-13T00:18:06.674Z,13.80
2022-09-13T00:20:34.499Z,13.80
2022-09-13T00:23:02.407Z,13.80
2022-09-13T00:25:31.830Z,13.80
2022-09-13T00:27:59.688Z,13.80
2022-09-13T00:30:27.531Z,13.70
2022-09-13T00:32:55.527Z,13.70
2022-09-13T00:35:23.727Z,13.60
2022-09-13T00:37:51.720Z,13.60
2022-09-13T00:40:19.767Z,13.70
2022-09-13T00:42:49.007Z,13.70
2022-09-13T00:45:17.800Z,13.70
2022-09-13T00:47:52.346Z,13.60
2022-09-13T00:50:24.825Z,13.60
2022-09-13T00:52:56.295Z,13.60
2022-09-13T00:55:30.243Z,13.50
2022-09-13T00:58:05.837Z,13.50
2022-09-13T01:00:33.940Z,13.50
2022-09-13T01:03:06.937Z,13.40
2022-09-13T01:05:38.837Z,13.40
2022-09-13T01:08:12.601Z,13.40
2022-09-13T01:10:41.799Z,13.30
2022-09-13T01:13:15.152Z,13.30
2022-09-13T01:15:43.501Z,13.30
2022-09-13T01:18:12.595Z,13.20
2022-09-13T01:20:57.362Z,13.20
2022-09-13T01:23:55.058Z,13.20
2022-09-13T01:27:01.060Z,13.10
2022-09-13T01:30:06.630Z,13.10
2022-09-13T01:32:47.012Z,13.10
2022-09-13T01:35:24.073Z,13.10
2022-09-13T01:37:55.581Z,13.10
2022-09-13T01:40:39.184Z,13.20
2022-09-13T01:43:24.584Z,13.20
2022-09-13T01:46:02.176Z,13.20
2022-09-13T01:48:42.500Z,13.20
2022-09-13T01:51:16.451Z,13.20
2022-09-13T01:53:52.551Z,13.10
2022-09-13T01:56:27.860Z,13.10
2022-09-13T01:58:59.320Z,13.00
2022-09-13T02:01:34.116Z,13.00
2022-09-13T02:04:05.897Z,12.90
2022-09-13T02:06:38.001Z,12.80
2022-09-13T02:09:12.046Z,12.80
2022-09-13T02:11:43.631Z,12.80
2022-09-13T02:14:15.156Z,12.80
2022-09-13T02:16:48.241Z,12.90
2022-09-13T02:19:22.586Z,13.00
2022-09-13T02:21:55.815Z,13.10
2022-09-13T02:24:29.922Z,13.10
2022-09-13T02:27:00.700Z,13.10
2022-09-13T02:29:31.159Z,13.00
2022-09-13T02:32:08.038Z,12.90
2022-09-13T02:34:40.113Z,12.80
2022-09-13T02:37:10.764Z,12.80
2022-09-13T02:39:44.872Z,12.80
2022-09-13T02:42:18.160Z,12.70
2022-09-13T02:44:49.827Z,12.70
2022-09-13T02:47:43.471Z,12.80
2022-09-13T02:50:26.036Z,12.70
2022-09-13T02:53:03.743Z,12.70
2022-09-13T02:55:42.505Z,12.70
2022-09-13T02:58:13.610Z,12.60
2022-09-13T03:00:42.071Z,12.70
2022-09-13T03:03:15.579Z,12.60
2022-09-13T03:05:44.260Z,12.60
2022-09-13T03:08:15.607Z,12.60
2022-09-13T03:10:53.118Z,12.70
2022-09-13T03:13:41.597Z,12.60
2022-09-13T03:16:25.196Z,12.80
2022-09-13T03:19:08.271Z,12.70
2022-09-13T03:21:55.976Z,12.60
2022-09-13T03:24:28.093Z,12.70
2022-09-13T03:27:10.759Z,12.60
2022-09-13T03:29:44.609Z,12.60
2022-09-13T03:32:27.983Z,12.60
2022-09-13T03:35:05.691Z,12.70
2022-09-13T03:37:43.415Z,12.70
2022-09-13T03:40:15.468Z,12.80
2022-09-13T03:42:47.409Z,12.90
2022-09-13T03:45:18.698Z,13.00
2022-09-13T03:47:49.460Z,13.10
2022-09-13T03:50:21.569Z,13.10
2022-09-13T03:52:56.446Z,13.20
2022-09-13T03:55:25.841Z,13.20
2022-09-13T03:57:53.667Z,13.30
2022-09-13T04:00:21.962Z,13.30
2022-09-13T04:02:50.837Z,13.30
2022-09-13T04:05:20.020Z,13.30
2022-09-13T04:07:47.885Z,13.30
2022-09-13T04:10:15.854Z,13.30
2022-09-13T04:12:43.683Z,13.20
2022-09-13T04:15:11.527Z,13.20
2022-09-13T04:17:39.359Z,13.20
2022-09-13T04:20:07.755Z,13.20
2022-09-13T04:22:36.946Z,13.30
2022-09-13T04:25:05.563Z,13.20
2022-09-13T04:27:33.405Z,13.20
2022-09-13T04:30:01.253Z,13.10
2022-09-13T04:32:29.553Z,13.10
2022-09-13T04:34:57.415Z,13.10
2022-09-13T04:37:25.251Z,13.20
2022-09-13T04:39:54.594Z,13.20
2022-09-13T04:42:22.569Z,13.30
2022-09-13T04:44:50.429Z,13.30
2022-09-13T04:47:18.356Z,13.30
2022-09-13T04:49:46.433Z,13.20
2022-09-13T04:52:14.282Z,13.20
2022-09-13T04:54:42.081Z,13.10
2022-09-13T04:57:12.371Z,13.20
2022-09-13T04:59:40.195Z,13.20
2022-09-13T05:02:08.099Z,13.20
2022-09-13T05:04:36.044Z,13.30
2022-09-13T05:07:06.105Z,13.40
2022-09-13T05:09:33.951Z,13.40
2022-09-13T05:12:01.788Z,13.50
2022-09-13T05:14:31.028Z,13.50
2022-09-13T05:17:08.209Z,13.60
2022-09-13T05:19:36.078Z,13.60
2022-09-13T05:22:04.163Z,13.70
2022-09-13T05:24:33.025Z,13.70
2022-09-13T05:27:00.852Z,13.70
2022-09-13T05:29:30.060Z,13.80
2022-09-13T05:31:58.679Z,13.80
2022-09-13T05:34:26.528Z,13.80
2022-09-13T05:36:54.703Z,13.80
2022-09-13T05:39:43.687Z,13.90
2022-09-13T05:42:10.820Z,13.90
2022-09-13T05:44:40.058Z,13.80
2022-09-13T05:47:08.173Z,13.90
2022-09-13T05:49:45.962Z,13.80
2022-09-13T05:52:24.130Z,13.90
2022-09-13T05:54:52.232Z,13.90
2022-09-13T05:57:20.081Z,14.00
2022-09-13T05:59:49.295Z,14.10
2022-09-13T06:02:17.206Z,14.20
2022-09-13T06:04:46.017Z,14.30
2022-09-13T06:07:13.899Z,14.40
2022-09-13T06:09:41.910Z,14.40
2022-09-13T06:12:09.746Z,14.50
2022-09-13T06:14:37.575Z,14.70
2022-09-13T06:17:06.891Z,14.60
2022-09-13T06:19:35.210Z,14.60
2022-09-13T06:22:03.107Z,14.70
2022-09-13T06:24:30.922Z,14.80
2022-09-13T06:26:59.155Z,14.80
2022-09-13T06:29:26.977Z,14.70
2022-09-13T06:31:54.980Z,14.70
2022-09-13T06:34:26.949Z,14.70
2022-09-13T06:36:58.675Z,14.80
2022-09-13T06:39:26.599Z,14.80
2022-09-13T06:41:54.407Z,14.80
2022-09-13T06:44:22.576Z,14.80
2022-09-13T06:46:50.368Z,14.90
2022-09-13T06:49:18.215Z,14.90
2022-09-13T06:51:47.603Z,14.90
2022-09-13T06:54:15.491Z,15.00
2022-09-13T06:56:43.364Z,15.00
2022-09-13T06:59:11.640Z,15.10
2022-09-13T07:01:41.522Z,15.20
2022-09-13T07:04:11.236Z,15.20
2022-09-13T07:06:41.228Z,15.20
2022-09-13T07:09:13.722Z,15.20
2022-09-13T07:11:42.938Z,15.20
2022-09-13T07:14:15.504Z,15.20
2022-09-13T07:16:43.404Z,15.30
2022-09-13T07:19:15.281Z,15.30
2022-09-13T07:21:43.608Z,15.40
2022-09-13T07:24:13.056Z,15.50
2022-09-13T07:26:40.957Z,15.50
2022-09-13T07:29:11.542Z,15.60
2022-09-13T07:31:41.425Z,15.60
2022-09-13T07:34:13.786Z,15.80
2022-09-13T07:36:41.707Z,15.90
2022-09-13T07:39:14.873Z,16.10
2022-09-13T07:41:45.304Z,16.20
2022-09-13T07:44:17.396Z,16.30
2022-09-13T07:46:45.408Z,16.40
2022-09-13T07:49:15.313Z,16.40
2022-09-13T07:51:44.442Z,16.40
2022-09-13T07:54:14.162Z,16.40
2022-09-13T07:56:43.767Z,16.40
2022-09-13T07:59:14.648Z,16.30
2022-09-13T08:01:44.485Z,16.30
2022-09-13T08:04:14.373Z,16.30
2022-09-13T08:06:43.569Z,16.40
2022-09-13T08:09:12.124Z,16.40
2022-09-13T08:11:41.786Z,16.50
2022-09-13T08:14:13.896Z,16.70
2022-09-13T08:16:41.990Z,16.80
2022-09-13T08:19:13.798Z,16.90
2022-09-13T08:21:42.699Z,17.00
2022-09-13T08:24:17.884Z,17.10
2022-09-13T08:26:46.554Z,17.00
2022-09-13T08:29:17.536Z,17.10
2022-09-13T08:31:46.214Z,17.10
2022-09-13T08:34:15.448Z,17.10
2022-09-13T08:36:44.284Z,17.20
2022-09-13T08:39:13.864Z,17.20
2022-09-13T08:42:08.060Z,17.30
2022-09-13T08:44:43.908Z,17.40
2022-09-13T08:47:27.597Z,17.50
2022-09-13T08:50:05.289Z,17.70
2022-09-13T08:52:37.213Z,18.00
2022-09-13T08:55:21.481Z,18.30
2022-09-13T08:57:56.400Z,18.60
2022-09-13T09:00:32.817Z,18.60
2022-09-13T09:03:14.851Z,18.90
2022-09-13T09:05:48.965Z,19.30
2022-09-13T09:08:27.772Z,19.60
2022-09-13T09:10:58.148Z,19.90
2022-09-13T09:13:30.284Z,19.90
2022-09-13T09:16:03.626Z,19.90
2022-09-13T09:18:36.253Z,20.00
2022-09-13T09:21:04.780Z,20.20
2022-09-13T09:23:38.843Z,20.40
2022-09-13T09:26:18.721Z,20.30
2022-09-13T09:28:51.725Z,20.60
2022-09-13T09:31:32.285Z,21.00
2022-09-13T09:34:15.478Z,21.40
2022-09-13T09:36:48.364Z,21.50
2022-09-13T09:39:17.095Z,21.70
2022-09-13T09:41:45.790Z,21.90
2022-09-13T09:44:24.185Z,22.00
2022-09-13T09:46:57.647Z,21.90
2022-09-13T09:49:50.233Z,21.60
2022-09-13T09:52:22.659Z,21.60
2022-09-13T09:54:51.732Z,21.50
2022-09-13T09:57:20.800Z,21.40
2022-09-13T09:59:49.339Z,21.40
2022-09-13T10:02:21.359Z,21.30
2022-09-13T10:04:57.739Z,21.20
2022-09-13T10:07:30.209Z,21.20
2022-09-13T10:10:01.264Z,21.30
2022-09-13T10:12:33.838Z,21.30
2022-09-13T10:15:17.915Z,21.40
2022-09-13T10:18:02.924Z,21.30
2022-09-13T10:20:31.369Z,21.30
2022-09-13T10:23:18.710Z,21.40
2022-09-13T10:25:58.981Z,21.50
2022-09-13T10:28:27.499Z,21.60
2022-09-13T10:30:58.577Z,21.70
2022-09-13T10:33:30.953Z,21.70
2022-09-13T10:36:01.721Z,21.70
2022-09-13T10:38:33.178Z,21.70
2022-09-13T10:41:03.809Z,21.60
2022-09-13T10:43:33.562Z,21.70
2022-09-13T10:46:03.715Z,21.70
2022-09-13T10:48:46.243Z,21.80
2022-09-13T10:51:29.702Z,21.80
2022-09-13T10:54:11.325Z,21.80
2022-09-13T10:56:39.221Z,21.70
2022-09-13T10:59:21.086Z,21.60
2022-09-13T11:02:01.551Z,21.50
2022-09-13T11:04:57.836Z,21.50
2022-09-13T11:07:45.092Z,21.60
2022-09-13T11:10:21.269Z,21.60
2022-09-13T11:12:56.432Z,21.60
2022-09-13T11:15:37.990Z,21.60
2022-09-13T11:18:21.183Z,21.60
2022-09-13T11:20:59.079Z,21.70
2022-09-13T11:23:52.768Z,21.70
2022-09-13T11:26:42.028Z,21.70
2022-09-13T11:29:25.228Z,21.70
2022-09-13T11:32:02.531Z,21.70
2022-09-13T11:34:40.174Z,21.60
2022-09-13T11:37:24.829Z,21.60
2022-09-13T11:40:01.954Z,21.70
2022-09-13T11:42:44.273Z,21.70
2022-09-13T11:45:22.129Z,21.70
2022-09-13T11:48:09.773Z,21.60
2022-09-13T11:50:49.366Z,21.60
2022-09-13T11:53:41.501Z,21.60
2022-09-13T11:56:15.112Z,21.60
2022-09-13T11:58:48.597Z,21.70
2022-09-13T12:01:22.052Z,21.80
2022-09-13T12:03:57.745Z,21.90
2022-09-13T12:06:30.573Z,22.00
2022-09-13T12:09:04.766Z,22.00
2022-09-13T12:11:38.524Z,21.90
2022-09-13T12:14:13.003Z,21.90
2022-09-13T12:16:44.627Z,21.90
2022-09-13T12:19:17.754Z,21.80
2022-09-13T12:21:48.295Z,21.80
2022-09-13T12:24:23.203Z,21.70
2022-09-13T12:26:58.995Z,21.70
2022-09-13T12:29:36.427Z,21.70
2022-09-13T12:32:08.202Z,21.70
2022-09-13T12:34:42.800Z,21.70
2022-09-13T12:37:36.937Z,21.70
2022-09-13T12:40:28.673Z,21.80
2022-09-13T12:43:19.735Z,21.80
2022-09-13T12:46:10.298Z,21.80
2022-09-13T12:48:54.333Z,21.80
2022-09-13T12:51:37.871Z,21.80
2022-09-13T12:54:37.897Z,21.80
2022-09-13T12:57:21.396Z,21.90
2022-09-13T13:00:28.400Z,22.10
2022-09-13T13:03:11.630Z,22.40
2022-09-13T13:05:43.151Z,22.80
2022-09-13T13:08:27.965Z,23.20
2022-09-13T13:11:04.552Z,23.50
2022-09-13T13:13:39.059Z,23.70
2022-09-13T13:16:24.160Z,23.80
2022-09-13T13:18:53.061Z,23.90
2022-09-13T13:21:33.836Z,23.90
2022-09-13T13:24:41.605Z,23.80
2022-09-13T13:27:54.970Z,23.90
2022-09-13T13:30:53.604Z,24.10
2022-09-13T13:33:25.992Z,24.40
2022-09-13T13:35:54.588Z,24.50
2022-09-13T13:38:47.767Z,24.70
2022-09-13T13:41:39.500Z,24.90
2022-09-13T13:44:44.746Z,24.70
2022-09-13T13:47:56.900Z,24.80
2022-09-13T13:50:24.781Z,24.70
2022-09-13T13:53:03.135Z,24.80
2022-09-13T13:55:46.834Z,24.70
2022-09-13T13:58:30.869Z,24.70
2022-09-13T14:01:02.585Z,24.70
2022-09-13T14:03:49.507Z,24.70
2022-09-13T14:06:25.773Z,24.70
2022-09-13T14:09:08.300Z,24.70
2022-09-13T14:11:54.358Z,24.70
2022-09-13T14:14:42.158Z,24.70
2022-09-13T14:17:34.923Z,24.70
2022-09-13T14:20:10.036Z,24.50
2022-09-13T14:22:38.150Z,24.50
2022-09-13T14:25:23.574Z,24.50
2022-09-13T14:27:53.753Z,24.40
2022-09-13T14:30:24.218Z,24.50
2022-09-13T14:32:54.425Z,24.50
2022-09-13T14:35:30.640Z,24.40
2022-09-13T14:38:12.687Z,24.40
2022-09-13T14:40:40.806Z,24.40
2022-09-13T14:43:16.304Z,24.40
2022-09-13T14:45:48.075Z,24.50
2022-09-13T14:48:20.397Z,24.60
2022-09-13T14:50:53.791Z,24.60
2022-09-13T14:53:23.491Z,24.70
2022-09-13T14:55:54.581Z,24.50
2022-09-13T14:58:25.337Z,24.40
2022-09-13T15:00:57.227Z,24.40
2022-09-13T15:03:26.177Z,24.40
2022-09-13T15:05:57.936Z,24.40
2022-09-13T15:08:45.064Z,24.40
2022-09-13T15:11:16.773Z,24.40
2022-09-13T15:13:45.328Z,24.40
2022-09-13T15:16:27.916Z,24.40
2022-09-13T15:19:16.388Z,24.30
2022-09-13T15:21:46.598Z,24.30
2022-09-13T15:24:22.424Z,24.30
2022-09-13T15:26:50.339Z,24.40
2022-09-13T15:29:20.280Z,24.40
2022-09-13T15:31:48.195Z,24.40
2022-09-13T15:34:24.915Z,24.50
2022-09-13T15:37:10.821Z,24.50
2022-09-13T15:39:50.290Z,24.60
2022-09-13T15:42:18.958Z,24.70
2022-09-13T15:44:46.850Z,24.80
2022-09-13T15:47:19.299Z,24.80
2022-09-13T15:49:50.969Z,24.80
2022-09-13T15:52:21.537Z,24.70
2022-09-13T15:54:51.325Z,24.70
2022-09-13T15:57:22.809Z,24.60
2022-09-13T15:59:50.646Z,24.60
2022-09-13T16:02:21.665Z,24.50
2022-09-13T16:04:50.598Z,24.50
2022-09-13T16:07:20.561Z,24.50
2022-09-13T16:09:49.711Z,24.40
2022-09-13T16:12:18.815Z,24.30
2022-09-13T16:14:47.580Z,24.20
2022-09-13T16:17:20.260Z,24.00
2022-09-13T16:19:48.103Z,24.00
2022-09-13T16:22:16.134Z,23.90
2022-09-13T16:24:45.360Z,23.90
2022-09-13T16:27:14.289Z,23.80
2022-09-13T16:29:42.552Z,23.70
2022-09-13T16:32:10.688Z,23.60
2022-09-13T16:34:38.642Z,23.60
2022-09-13T16:37:06.900Z,23.50
2022-09-13T16:39:34.748Z,23.40
2022-09-13T16:42:04.956Z,23.30
2022-09-13T16:44:32.831Z,23.30
2022-09-13T16:47:00.818Z,23.20
2022-09-13T16:49:29.038Z,23.10
2022-09-13T16:51:59.325Z,23.10
2022-09-13T16:54:27.578Z,23.10
2022-09-13T16:56:55.437Z,23.00
2022-09-13T16:59:24.896Z,23.00
2022-09-13T17:01:52.954Z,23.00
2022-09-13T17:04:20.910Z,22.90
2022-09-13T17:06:50.424Z,22.90
2022-09-13T17:09:21.031Z,22.80
2022-09-13T17:11:48.896Z,22.70
2022-09-13T17:14:17.738Z,22.60
2022-09-13T17:16:48.914Z,22.60
2022-09-13T17:19:19.486Z,22.50
2022-09-13T17:21:47.828Z,22.40
2022-09-13T17:24:15.901Z,22.40
2022-09-13T17:26:46.652Z,22.30
2022-09-13T17:29:15.705Z,22.20
2022-09-13T17:31:43.777Z,22.10
2022-09-13T17:34:13.924Z,22.10
2022-09-13T17:36:41.965Z,21.90
2022-09-13T17:39:10.867Z,21.90
2022-09-13T17:41:39.099Z,21.80
2022-09-13T17:44:07.167Z,21.80
2022-09-13T17:46:35.222Z,21.70
2022-09-13T17:49:04.034Z,21.70
2022-09-13T17:51:34.163Z,21.60
2022-09-13T17:54:03.788Z,21.60
2022-09-13T17:56:33.879Z,21.50
2022-09-13T17:59:10.009Z,21.50
2022-09-13T18:01:40.302Z,21.40
2022-09-13T18:04:08.626Z,21.30
2022-09-13T18:06:38.429Z,21.30
2022-09-13T18:09:06.456Z,21.30
2022-09-13T18:11:34.408Z,21.20
2022-09-13T18:14:02.501Z,21.10
2022-09-13T18:16:30.475Z,21.10
2022-09-13T18:19:00.169Z,21.10
2022-09-13T18:21:28.217Z,21.00
2022-09-13T18:23:59.606Z,21.00
2022-09-13T18:26:29.318Z,21.00
2022-09-13T18:29:01.546Z,20.90
2022-09-13T18:31:30.979Z,20.90
2022-09-13T18:34:00.675Z,20.90
2022-09-13T18:36:30.000Z,20.80
2022-09-13T18:38:59.337Z,20.80
2022-09-13T18:41:30.697Z,20.70
2022-09-13T18:43:59.783Z,20.70
2022-09-13T18:46:30.334Z,20.70
2022-09-13T18:48:58.473Z,20.60
2022-09-13T18:51:28.352Z,20.60
2022-09-13T18:53:58.181Z,20.50
2022-09-13T18:56:28.797Z,20.50
2022-09-13T18:58:57.630Z,20.40
2022-09-13T19:01:27.315Z,20.40
2022-09-13T19:03:57.206Z,20.40
2022-09-13T19:06:26.949Z,20.40
2022-09-13T19:08:56.276Z,20.30
2022-09-13T19:11:45.783Z,20.30
2022-09-13T19:14:15.599Z,20.30
2022-09-13T19:16:43.536Z,20.30
2022-09-13T19:19:11.750Z,20.30
2022-09-13T19:21:39.665Z,20.20
2022-09-13T19:24:16.193Z,20.20
2022-09-13T19:26:47.804Z,20.10
2022-09-13T19:29:17.502Z,20.20
2022-09-13T19:31:47.987Z,20.20
2022-09-13T19:34:17.445Z,20.20
2022-09-13T19:36:45.656Z,20.20
2022-09-13T19:39:15.157Z,20.20
2022-09-13T19:41:43.324Z,20.20
2022-09-13T19:44:14.089Z,20.10
2022-09-13T19:46:42.610Z,20.10
2022-09-13T19:49:13.705Z,20.10
2022-09-13T19:51:42.558Z,20.10
2022-09-13T19:54:12.792Z,20.10
2022-09-13T19:56:43.425Z,20.10
2022-09-13T19:59:16.114Z,20.10
2022-09-13T20:01:45.891Z,20.10
2022-09-13T20:04:15.905Z,20.10
2022-09-13T20:06:45.462Z,20.10
2022-09-13T20:09:14.668Z,20.10
2022-09-13T20:11:45.304Z,20.10
2022-09-13T20:14:15.833Z,20.10
2022-09-13T20:16:44.550Z,20.00
2022-09-13T20:22:07.512Z,20.00
2022-09-13T20:24:35.603Z,20.00
2022-09-13T20:27:03.615Z,20.00
2022-09-13T20:29:32.792Z,20.00
2022-09-13T20:32:02.061Z,20.00
2022-09-13T20:34:29.977Z,19.90
2022-09-13T20:36:57.860Z,19.90
2022-09-13T20:39:25.742Z,19.90
2022-09-13T20:41:54.617Z,19.90
2022-09-13T20:44:22.474Z,19.90
2022-09-13T20:46:51.711Z,19.90
2022-09-13T20:49:19.637Z,19.90
2022-09-13T20:51:49.277Z,19.90
2022-09-13T20:54:17.291Z,19.90
2022-09-13T20:56:46.199Z,19.90
2022-09-13T20:59:14.385Z,19.90
2022-09-13T21:01:42.336Z,19.90
2022-09-13T21:04:11.595Z,19.90
2022-09-13T21:07:02.492Z,19.80
2022-09-13T21:09:29.691Z,19.80
2022-09-13T21:11:57.548Z,19.60
2022-09-13T21:14:25.443Z,19.60
2022-09-13T21:16:53.551Z,19.40
2022-09-13T21:19:23.009Z,19.40
2022-09-13T21:21:51.318Z,19.40
2022-09-13T21:24:19.293Z,19.30
2022-09-13T21:26:47.226Z,19.30
2022-09-13T21:29:15.015Z,19.30
2022-09-13T21:31:43.003Z,19.30
2022-09-13T21:34:15.150Z,19.20
2022-09-13T21:36:44.909Z,19.20
2022-09-13T21:39:13.673Z,19.20
2022-09-13T21:41:42.134Z,19.20
2022-09-13T21:44:10.219Z,19.20
2022-09-13T21:46:39.137Z,19.20
2022-09-13T21:49:08.484Z,19.20
2022-09-13T21:51:37.916Z,19.20
2022-09-13T21:54:12.405Z,19.20
2022-09-13T21:56:42.446Z,19.20
2022-09-13T21:59:14.543Z,19.20
2022-09-13T22:01:43.877Z,19.20
2022-09-13T22:04:16.146Z,19.20
2022-09-13T22:06:44.525Z,19.20
2022-09-13T22:09:15.356Z,19.20
2022-09-13T22:11:45.483Z,19.20
2022-09-13T22:14:15.524Z,19.20
2022-09-13T22:16:44.941Z,19.20
2022-09-13T22:19:16.359Z,19.30
2022-09-13T22:21:45.777Z,19.30
2022-09-13T22:24:17.689Z,19.30
2022-09-13T22:26:46.634Z,19.30
2022-09-13T22:29:16.053Z,19.20
2022-09-13T22:31:46.191Z,19.20
2022-09-13T22:34:16.866Z,19.20
2022-09-13T22:36:45.395Z,19.20
2022-09-13T22:39:16.735Z,19.20
2022-09-13T22:41:44.931Z,19.30
2022-09-13T22:44:13.438Z,19.30
2022-09-13T22:46:42.901Z,19.30
2022-09-13T22:49:13.419Z,19.30
2022-09-13T22:51:41.606Z,19.30
2022-09-13T22:54:09.531Z,19.30
2022-09-13T22:56:38.797Z,19.30
2022-09-13T22:59:08.577Z,19.30
2022-09-13T23:01:37.819Z,19.30
2022-09-13T23:04:06.635Z,19.30
2022-09-13T23:06:35.462Z,19.30
2022-09-13T23:09:06.371Z,19.20
2022-09-13T23:11:35.866Z,19.20
2022-09-13T23:14:07.484Z,19.10
2022-09-13T23:16:36.936Z,19.10
2022-09-13T23:19:05.234Z,19.00
2022-09-13T23:21:35.785Z,19.00
2022-09-13T23:24:05.209Z,19.00
2022-09-13T23:26:33.427Z,18.90
2022-09-13T23:29:02.537Z,18.80
2022-09-13T23:31:33.331Z,18.80
2022-09-13T23:34:03.385Z,18.70
2022-09-13T23:36:33.144Z,18.70
2022-09-13T23:39:03.195Z,18.60
2022-09-13T23:41:33.104Z,18.60
2022-09-13T23:44:01.015Z,18.60
2022-09-13T23:46:29.304Z,18.50
2022-09-13T23:48:58.699Z,18.50
2022-09-13T23:51:27.795Z,18.40
2022-09-13T23:53:57.737Z,18.30
2022-09-13T23:56:26.417Z,18.30
2022-09-13T23:58:55.864Z,18.20
